createdAt,value
2019-01-30T00:01:41.502Z,9.70
2019-01-30T00:04:10.929Z,14.10
2019-01-30T00:06:40.785Z,11.22
2019-01-30T00:09:10.910Z,11.38
2019-01-30T00:11:40.100Z,14.47
2019-01-30T00:14:09.287Z,9.70
2019-01-30T00:16:38.578Z,10.58
2019-01-30T00:19:07.830Z,9.63
2019-01-30T00:21:37.040Z,21.52
2019-01-30T00:24:06.331Z,13.85
2019-01-30T00:26:35.586Z,12.68
2019-01-30T00:29:05.124Z,10.85
2019-01-30T00:31:34.293Z,7.80
2019-01-30T00:34:03.491Z,10.63
2019-01-30T00:36:32.754Z,11.18
2019-01-30T00:39:01.918Z,13.00
2019-01-30T00:41:31.187Z,13.58
2019-01-30T00:44:00.467Z,11.18
2019-01-30T00:46:29.638Z,9.03
2019-01-30T00:48:58.964Z,11.83
2019-01-30T00:51:28.520Z,12.18
2019-01-30T00:53:57.754Z,11.65
2019-01-30T00:56:27.012Z,11.45
2019-01-30T00:58:58.047Z,19.15
2019-01-30T01:01:27.304Z,18.60
2019-01-30T01:03:59.752Z,8.55
2019-01-30T01:06:29.003Z,9.25
2019-01-30T01:08:58.318Z,12.53
2019-01-30T01:11:27.522Z,16.95
2019-01-30T01:13:56.772Z,12.07
2019-01-30T01:16:25.940Z,8.10
2019-01-30T01:18:55.227Z,15.98
2019-01-30T01:21:25.268Z,9.20
2019-01-30T01:23:54.446Z,9.08
2019-01-30T01:26:23.660Z,14.13
2019-01-30T01:28:53.089Z,9.75
2019-01-30T01:31:22.329Z,11.05
2019-01-30T01:33:51.552Z,8.83
2019-01-30T01:36:20.735Z,11.75
2019-01-30T01:38:49.911Z,13.80
2019-01-30T01:41:19.119Z,7.15
2019-01-30T01:43:48.352Z,10.48
2019-01-30T01:46:17.515Z,7.60
2019-01-30T01:48:46.752Z,13.00
2019-01-30T01:51:16.055Z,13.83
2019-01-30T01:53:45.239Z,16.60
2019-01-30T01:56:14.435Z,12.85
2019-01-30T01:58:43.577Z,9.48
2019-01-30T02:01:12.735Z,11.55
2019-01-30T02:03:42.032Z,16.73
2019-01-30T02:06:11.275Z,12.03
2019-01-30T02:08:40.443Z,17.95
2019-01-30T02:11:09.716Z,8.73
2019-01-30T02:13:38.967Z,8.88
2019-01-30T02:16:08.115Z,6.95
2019-01-30T02:18:37.324Z,11.75
2019-01-30T02:21:06.477Z,10.32
2019-01-30T02:23:35.645Z,13.30
2019-01-30T02:26:04.863Z,11.12
2019-01-30T02:28:34.056Z,14.43
2019-01-30T02:31:03.219Z,12.63
2019-01-30T02:33:32.450Z,8.95
2019-01-30T02:36:01.682Z,13.90
2019-01-30T02:38:31.097Z,18.87
2019-01-30T02:41:00.374Z,10.10
2019-01-30T02:43:29.616Z,9.25
2019-01-30T02:45:58.768Z,8.65
2019-01-30T02:48:27.985Z,11.33
2019-01-30T02:50:57.200Z,17.32
2019-01-30T02:53:26.346Z,6.37
2019-01-30T02:55:55.520Z,6.10
2019-01-30T02:58:24.770Z,6.50
2019-01-30T03:00:59.421Z,6.00
2019-01-30T03:03:25.009Z,7.67
2019-01-30T03:05:54.236Z,5.67
2019-01-30T03:08:23.413Z,7.37
2019-01-30T03:10:52.748Z,7.33
2019-01-30T03:13:22.005Z,10.03
2019-01-30T03:15:51.353Z,6.00
2019-01-30T03:18:20.630Z,8.03
2019-01-30T03:20:49.793Z,12.73
2019-01-30T03:23:19.017Z,7.87
2019-01-30T03:25:48.203Z,6.60
2019-01-30T03:28:17.377Z,25.50
2019-01-30T03:30:46.612Z,5.62
2019-01-30T03:33:15.924Z,7.20
2019-01-30T03:35:45.105Z,8.90
2019-01-30T03:38:14.422Z,10.48
2019-01-30T03:40:43.711Z,10.48
2019-01-30T03:43:12.874Z,7.53
2019-01-30T03:45:42.030Z,7.95
2019-01-30T03:48:11.245Z,12.95
2019-01-30T03:50:40.475Z,6.95
2019-01-30T03:53:09.723Z,10.85
2019-01-30T03:55:38.975Z,19.30
2019-01-30T03:58:08.143Z,12.25
2019-01-30T04:00:37.297Z,12.40
2019-01-30T04:03:06.565Z,10.23
2019-01-30T04:05:35.721Z,15.80
2019-01-30T04:08:04.895Z,14.28
2019-01-30T04:10:34.151Z,8.03
2019-01-30T04:13:03.804Z,13.60
2019-01-30T04:15:33.041Z,16.05
2019-01-30T04:18:02.324Z,11.90
2019-01-30T04:20:31.487Z,14.35
2019-01-30T04:23:00.732Z,12.35
2019-01-30T04:25:30.012Z,14.30
2019-01-30T04:27:59.180Z,11.95
2019-01-30T04:30:28.415Z,15.80
2019-01-30T04:32:57.709Z,11.80
2019-01-30T04:35:26.880Z,13.03
2019-01-30T04:37:56.048Z,11.95
2019-01-30T04:40:25.330Z,17.73
2019-01-30T04:42:54.557Z,23.05
2019-01-30T04:45:25.191Z,25.77
2019-01-30T04:47:54.458Z,19.65
2019-01-30T04:50:23.618Z,18.90
2019-01-30T04:52:52.769Z,15.15
2019-01-30T04:55:21.977Z,14.78
2019-01-30T04:57:51.213Z,20.65
2019-01-30T05:00:22.535Z,19.32
2019-01-30T05:02:51.888Z,19.30
2019-01-30T05:05:21.089Z,16.70
2019-01-30T05:07:50.281Z,19.37
2019-01-30T05:10:19.770Z,16.25
2019-01-30T05:12:51.980Z,18.02
2019-01-30T05:15:21.342Z,18.12
2019-01-30T05:17:50.681Z,17.30
2019-01-30T05:20:20.296Z,17.92
2019-01-30T05:22:49.547Z,20.08
2019-01-30T05:25:20.246Z,17.60
2019-01-30T05:27:49.420Z,16.75
2019-01-30T05:30:30.123Z,17.25
2019-01-30T05:32:59.304Z,15.65
2019-01-30T05:35:28.853Z,22.13
2019-01-30T05:37:58.164Z,14.47
2019-01-30T05:40:27.392Z,16.55
2019-01-30T05:42:56.568Z,18.30
2019-01-30T05:45:25.977Z,18.07
2019-01-30T05:47:55.139Z,20.75
2019-01-30T05:50:24.321Z,27.02
2019-01-30T05:52:53.864Z,12.95
2019-01-30T05:55:23.018Z,19.42
2019-01-30T05:57:52.268Z,13.90
2019-01-30T06:00:27.460Z,19.15
2019-01-30T06:02:56.707Z,16.90
2019-01-30T06:05:25.933Z,20.45
2019-01-30T06:07:55.199Z,17.98
2019-01-30T06:10:24.614Z,18.87
2019-01-30T06:12:53.858Z,16.25
2019-01-30T06:15:23.069Z,22.02
2019-01-30T06:17:52.309Z,15.30
2019-01-30T06:20:24.033Z,20.77
2019-01-30T06:22:53.581Z,16.45
2019-01-30T06:25:22.763Z,27.67
2019-01-30T06:27:52.085Z,23.32
2019-01-30T06:30:21.788Z,22.13
2019-01-30T06:32:51.557Z,23.95
2019-01-30T06:35:20.715Z,21.15
2019-01-30T06:37:49.917Z,24.90
2019-01-30T06:40:30.261Z,18.37
2019-01-30T06:43:02.340Z,15.88
2019-01-30T06:45:31.023Z,17.65
2019-01-30T06:48:00.204Z,18.50
2019-01-30T06:50:29.905Z,21.42
2019-01-30T06:52:59.501Z,16.77
2019-01-30T06:55:29.076Z,30.65
2019-01-30T06:57:58.449Z,16.57
2019-01-30T07:00:28.040Z,22.87
2019-01-30T07:02:58.996Z,27.02
2019-01-30T07:05:28.392Z,26.10
2019-01-30T07:07:58.130Z,31.57
2019-01-30T07:10:28.519Z,33.80
2019-01-30T07:12:57.735Z,41.92
2019-01-30T07:15:26.949Z,39.03
2019-01-30T07:17:56.227Z,25.43
2019-01-30T07:20:25.701Z,36.08
2019-01-30T07:22:55.417Z,43.70
2019-01-30T07:25:24.897Z,27.07
2019-01-30T07:27:54.183Z,24.72
2019-01-30T07:30:29.151Z,25.32
2019-01-30T07:32:58.402Z,28.07
2019-01-30T07:35:27.598Z,23.87
2019-01-30T07:37:58.657Z,28.52
2019-01-30T07:40:27.696Z,21.17
2019-01-30T07:42:56.893Z,23.05
2019-01-30T07:45:27.855Z,30.35
2019-01-30T07:47:57.126Z,27.52
2019-01-30T07:50:26.482Z,24.98
2019-01-30T07:52:55.734Z,25.25
2019-01-30T07:55:24.934Z,19.87
2019-01-30T07:57:54.119Z,20.20
2019-01-30T08:00:29.188Z,27.10
2019-01-30T08:02:58.787Z,19.95
2019-01-30T08:05:28.120Z,19.70
2019-01-30T08:07:57.714Z,33.98
2019-01-30T08:10:26.870Z,21.15
2019-01-30T08:12:56.456Z,25.00
2019-01-30T08:15:26.234Z,19.15
2019-01-30T08:17:55.489Z,26.45
2019-01-30T08:20:25.662Z,25.52
2019-01-30T08:22:55.116Z,25.08
2019-01-30T08:25:25.043Z,28.02
2019-01-30T08:27:54.394Z,25.37
2019-01-30T08:30:34.594Z,23.73
2019-01-30T08:33:05.822Z,24.87
2019-01-30T08:35:35.509Z,24.75
2019-01-30T08:38:05.405Z,27.95
2019-01-30T08:40:34.715Z,19.65
2019-01-30T08:43:04.480Z,26.30
2019-01-30T08:45:33.693Z,22.45
2019-01-30T08:48:02.948Z,23.55
2019-01-30T08:50:32.662Z,21.40
2019-01-30T08:53:01.958Z,19.90
2019-01-30T08:55:31.205Z,23.55
2019-01-30T08:58:00.483Z,22.77
2019-01-30T09:00:30.406Z,23.60
2019-01-30T09:02:59.592Z,22.58
2019-01-30T09:05:29.098Z,25.75
2019-01-30T09:07:58.369Z,23.12
2019-01-30T09:10:27.811Z,26.50
2019-01-30T09:12:57.252Z,24.87
2019-01-30T09:15:27.615Z,28.80
2019-01-30T09:17:56.783Z,24.20
2019-01-30T09:20:27.603Z,24.30
2019-01-30T09:22:56.877Z,28.73
2019-01-30T09:25:27.865Z,18.95
2019-01-30T09:27:57.572Z,29.23
2019-01-30T09:30:29.460Z,27.77
2019-01-30T09:32:58.726Z,22.22
2019-01-30T09:35:28.167Z,23.35
2019-01-30T09:37:57.724Z,23.15
2019-01-30T09:40:27.479Z,26.25
2019-01-30T09:42:56.766Z,40.88
2019-01-30T09:45:26.079Z,25.88
2019-01-30T09:47:55.382Z,29.32
2019-01-30T09:50:25.511Z,37.03
2019-01-30T09:52:57.380Z,34.27
2019-01-30T09:55:26.544Z,24.47
2019-01-30T09:57:55.717Z,37.30
2019-01-30T10:00:30.401Z,30.30
2019-01-30T10:02:59.618Z,27.37
2019-01-30T10:05:28.923Z,44.33
2019-01-30T10:07:58.191Z,25.62
2019-01-30T10:10:32.386Z,33.92
2019-01-30T10:13:01.618Z,30.88
2019-01-30T10:15:33.248Z,37.63
2019-01-30T10:18:02.706Z,27.07
2019-01-30T10:20:32.413Z,28.67
2019-01-30T10:23:01.966Z,35.95
2019-01-30T10:25:31.299Z,35.75
2019-01-30T10:28:00.561Z,26.80
2019-01-30T10:30:34.797Z,30.48
2019-01-30T10:33:04.470Z,32.25
2019-01-30T10:35:33.728Z,27.80
2019-01-30T10:38:02.920Z,30.48
2019-01-30T10:40:32.285Z,33.85
2019-01-30T10:43:01.523Z,35.83
2019-01-30T10:45:30.716Z,33.53
2019-01-30T10:47:59.894Z,25.48
2019-01-30T10:50:29.712Z,36.70
2019-01-30T10:52:59.170Z,34.43
2019-01-30T10:55:30.281Z,38.02
2019-01-30T10:58:01.508Z,31.25
2019-01-30T11:00:33.453Z,32.83
2019-01-30T11:03:02.710Z,29.30
2019-01-30T11:05:31.950Z,29.37
2019-01-30T11:08:01.111Z,29.57
2019-01-30T11:10:30.338Z,27.35
2019-01-30T11:12:59.548Z,29.40
2019-01-30T11:15:28.888Z,28.05
2019-01-30T11:17:58.873Z,27.85
2019-01-30T11:20:28.892Z,26.93
2019-01-30T11:22:58.436Z,32.67
2019-01-30T11:25:30.417Z,29.72
2019-01-30T11:27:59.737Z,35.78
2019-01-30T11:30:29.075Z,27.80
2019-01-30T11:32:58.441Z,38.15
2019-01-30T11:35:27.696Z,35.68
2019-01-30T11:37:56.943Z,39.75
2019-01-30T11:40:26.349Z,37.95
2019-01-30T11:42:55.513Z,40.78
2019-01-30T11:45:30.935Z,35.03
2019-01-30T11:48:00.268Z,41.88
2019-01-30T11:50:29.525Z,45.20
2019-01-30T11:52:58.873Z,52.08
2019-01-30T11:55:28.046Z,48.58
2019-01-30T11:57:57.276Z,35.50
2019-01-30T12:00:41.403Z,46.80
2019-01-30T12:03:10.663Z,42.45
2019-01-30T12:05:40.215Z,44.77
2019-01-30T12:08:09.433Z,38.90
2019-01-30T12:10:38.726Z,43.92
2019-01-30T12:13:07.926Z,39.90
2019-01-30T12:15:38.642Z,43.08
2019-01-30T12:18:08.075Z,42.70
2019-01-30T12:20:37.258Z,41.15
2019-01-30T12:23:07.250Z,35.10
2019-01-30T12:25:36.506Z,34.35
2019-01-30T12:28:06.173Z,29.00
2019-01-30T12:30:35.456Z,38.78
2019-01-30T12:33:04.623Z,38.13
2019-01-30T12:35:33.792Z,43.45
2019-01-30T12:38:03.065Z,39.78
2019-01-30T12:40:32.345Z,38.13
2019-01-30T12:43:01.967Z,40.50
2019-01-30T12:45:32.967Z,42.27
2019-01-30T12:48:02.272Z,48.13
2019-01-30T12:50:31.673Z,38.40
2019-01-30T12:53:01.050Z,36.05
2019-01-30T12:55:30.325Z,30.75
2019-01-30T12:57:59.785Z,32.13
2019-01-30T13:00:32.610Z,30.43
2019-01-30T13:03:01.802Z,30.68
2019-01-30T13:05:31.703Z,35.28
2019-01-30T13:08:00.912Z,31.70
2019-01-30T13:10:30.483Z,35.38
2019-01-30T13:13:00.058Z,30.15
2019-01-30T13:15:29.316Z,31.25
2019-01-30T13:17:59.278Z,31.65
2019-01-30T13:20:28.457Z,39.53
2019-01-30T13:22:57.658Z,36.23
2019-01-30T13:25:29.489Z,26.60
2019-01-30T13:27:59.164Z,36.90
2019-01-30T13:30:33.776Z,34.23
2019-01-30T13:33:04.566Z,37.03
2019-01-30T13:35:35.366Z,37.60
2019-01-30T13:38:05.068Z,41.68
2019-01-30T13:40:36.426Z,43.85
2019-01-30T13:43:06.625Z,40.95
2019-01-30T13:45:36.259Z,47.08
2019-01-30T13:48:09.081Z,51.65
2019-01-30T13:50:38.395Z,51.28
2019-01-30T13:53:07.806Z,48.45
2019-01-30T13:55:37.001Z,48.17
2019-01-30T13:58:06.241Z,51.65
2019-01-30T14:00:36.724Z,49.08
2019-01-30T14:03:07.256Z,62.95
2019-01-30T14:05:36.453Z,56.92
2019-01-30T14:08:07.701Z,55.10
2019-01-30T14:10:36.904Z,69.07
2019-01-30T14:13:06.397Z,63.90
2019-01-30T14:15:36.052Z,68.25
2019-01-30T14:18:06.168Z,69.77
2019-01-30T14:20:35.396Z,59.45
2019-01-30T14:23:05.115Z,61.18
2019-01-30T14:25:34.345Z,62.55
2019-01-30T14:28:03.534Z,58.13
2019-01-30T14:30:35.250Z,60.88
2019-01-30T14:33:04.483Z,59.88
2019-01-30T14:35:37.159Z,57.13
2019-01-30T14:38:06.954Z,43.17
2019-01-30T14:40:36.274Z,52.15
2019-01-30T14:43:06.009Z,47.85
2019-01-30T14:45:35.298Z,47.35
2019-01-30T14:48:04.827Z,47.30
2019-01-30T14:50:35.112Z,50.35
2019-01-30T14:53:04.628Z,50.40
2019-01-30T14:55:34.175Z,51.00
2019-01-30T14:58:05.596Z,60.55
2019-01-30T15:00:34.994Z,61.63
2019-01-30T15:03:04.976Z,57.27
2019-01-30T15:05:34.334Z,53.05
2019-01-30T15:08:03.665Z,49.77
2019-01-30T15:10:32.870Z,60.38
2019-01-30T15:13:02.115Z,58.92
2019-01-30T15:15:32.299Z,55.08
2019-01-30T15:18:01.956Z,51.73
2019-01-30T15:20:33.387Z,67.40
2019-01-30T15:23:04.905Z,54.80
2019-01-30T15:25:34.141Z,59.23
2019-01-30T15:28:03.734Z,52.88
2019-01-30T15:30:53.447Z,57.10
2019-01-30T15:33:22.898Z,56.95
2019-01-30T15:35:52.134Z,60.55
2019-01-30T15:38:21.495Z,61.63
2019-01-30T15:40:50.694Z,70.42
2019-01-30T15:43:19.961Z,63.40
2019-01-30T15:45:49.236Z,60.28
2019-01-30T15:48:18.768Z,62.23
2019-01-30T15:50:47.954Z,55.20
2019-01-30T15:53:19.951Z,58.55
2019-01-30T15:55:49.267Z,48.68
2019-01-30T15:58:18.533Z,52.95
2019-01-30T16:00:50.559Z,55.80
2019-01-30T16:03:19.740Z,63.08
2019-01-30T16:05:48.916Z,60.35
2019-01-30T16:08:18.136Z,63.95
2019-01-30T16:10:47.318Z,61.45
2019-01-30T16:13:16.618Z,56.92
2019-01-30T16:15:49.190Z,61.42
2019-01-30T16:18:18.504Z,58.95
2019-01-30T16:20:47.766Z,64.82
2019-01-30T16:23:17.274Z,58.15
2019-01-30T16:25:46.529Z,62.75
2019-01-30T16:28:15.706Z,49.85
2019-01-30T16:30:45.335Z,50.10
2019-01-30T16:33:14.516Z,48.70
2019-01-30T16:35:43.708Z,48.92
2019-01-30T16:38:12.890Z,46.53
2019-01-30T16:40:42.167Z,47.53
2019-01-30T16:43:11.539Z,38.10
2019-01-30T16:45:40.974Z,43.48
2019-01-30T16:48:10.268Z,40.95
2019-01-30T16:50:39.549Z,45.85
2019-01-30T16:53:09.597Z,50.25
2019-01-30T16:55:38.827Z,44.15
2019-01-30T16:58:10.079Z,48.30
2019-01-30T17:00:39.626Z,41.88
2019-01-30T17:03:09.143Z,39.80
2019-01-30T17:05:38.501Z,44.63
2019-01-30T17:08:08.722Z,42.13
2019-01-30T17:10:38.229Z,42.08
2019-01-30T17:13:08.073Z,41.18
2019-01-30T17:15:38.191Z,44.93
2019-01-30T17:18:08.915Z,37.80
2019-01-30T17:20:39.230Z,37.13
2019-01-30T17:23:08.656Z,40.20
2019-01-30T17:25:38.479Z,39.27
2019-01-30T17:28:07.915Z,33.60
2019-01-30T17:31:03.970Z,37.63
2019-01-30T17:33:33.291Z,33.02
2019-01-30T17:36:02.552Z,32.23
2019-01-30T17:38:31.776Z,28.87
2019-01-30T17:41:00.963Z,27.05
2019-01-30T17:43:30.260Z,26.10
2019-01-30T17:45:59.621Z,21.57
2019-01-30T17:48:28.943Z,30.27
2019-01-30T17:50:58.409Z,18.15
2019-01-30T17:53:27.780Z,16.17
2019-01-30T17:55:57.059Z,21.20
2019-01-30T17:58:26.341Z,21.65
2019-01-30T18:01:04.982Z,25.23
2019-01-30T18:03:34.167Z,23.32
2019-01-30T18:06:03.358Z,19.02
2019-01-30T18:08:32.801Z,24.30
2019-01-30T18:11:02.140Z,23.87
2019-01-30T18:13:31.732Z,20.92
2019-01-30T18:16:00.968Z,16.97
2019-01-30T18:18:30.160Z,15.65
2019-01-30T18:20:59.410Z,18.80
2019-01-30T18:23:28.631Z,19.85
2019-01-30T18:25:57.900Z,16.87
2019-01-30T18:28:27.156Z,38.70
2019-01-30T18:30:56.462Z,23.55
2019-01-30T18:33:25.832Z,25.30
2019-01-30T18:35:55.981Z,29.72
2019-01-30T18:38:25.281Z,32.93
2019-01-30T18:40:54.625Z,36.93
2019-01-30T18:43:23.911Z,24.35
2019-01-30T18:45:53.169Z,33.15
2019-01-30T18:48:22.433Z,36.58
2019-01-30T18:50:51.671Z,31.75
2019-01-30T18:53:20.893Z,22.90
2019-01-30T18:55:50.384Z,34.00
2019-01-30T18:58:19.857Z,24.27
2019-01-30T19:00:49.143Z,33.65
2019-01-30T19:03:19.737Z,23.85
2019-01-30T19:05:49.690Z,22.55
2019-01-30T19:08:18.933Z,29.90
2019-01-30T19:10:48.337Z,30.70
2019-01-30T19:13:17.547Z,28.52
2019-01-30T19:15:46.898Z,17.32
2019-01-30T19:18:16.949Z,26.95
2019-01-30T19:20:50.131Z,35.30
2019-01-30T19:23:19.456Z,26.73
2019-01-30T19:25:48.849Z,34.63
2019-01-30T19:28:18.096Z,36.70
2019-01-30T19:30:47.683Z,27.32
2019-01-30T19:33:16.933Z,26.90
2019-01-30T19:35:46.257Z,35.08
2019-01-30T19:38:15.571Z,23.75
2019-01-30T19:40:44.844Z,25.65
2019-01-30T19:43:14.057Z,28.32
2019-01-30T19:45:43.392Z,35.17
2019-01-30T19:48:12.636Z,28.12
2019-01-30T19:50:41.892Z,29.70
2019-01-30T19:53:11.157Z,35.35
2019-01-30T19:55:40.687Z,28.85
2019-01-30T19:58:12.153Z,29.12
2019-01-30T20:00:44.388Z,32.58
2019-01-30T20:03:16.660Z,25.88
2019-01-30T20:05:45.835Z,30.10
2019-01-30T20:08:15.072Z,30.52
2019-01-30T20:10:44.460Z,28.87
2019-01-30T20:13:13.720Z,26.90
2019-01-30T20:15:42.989Z,29.23
2019-01-30T20:18:12.772Z,39.75
2019-01-30T20:20:42.044Z,31.55
2019-01-30T20:23:14.356Z,27.87
2019-01-30T20:25:44.123Z,28.12
2019-01-30T20:28:13.440Z,22.07
2019-01-30T20:30:42.659Z,18.40
2019-01-30T20:33:11.879Z,19.40
2019-01-30T20:35:44.003Z,28.60
2019-01-30T20:38:13.683Z,20.88
2019-01-30T20:40:43.144Z,13.70
2019-01-30T20:43:12.476Z,19.87
2019-01-30T20:45:41.746Z,21.65
2019-01-30T20:48:11.155Z,22.62
2019-01-30T20:50:40.704Z,33.48
2019-01-30T20:53:10.075Z,17.37
2019-01-30T20:55:39.595Z,19.62
2019-01-30T20:58:08.802Z,20.45
2019-01-30T21:00:39.012Z,24.52
2019-01-30T21:03:09.079Z,20.05
2019-01-30T21:05:38.314Z,24.10
2019-01-30T21:08:09.909Z,21.57
2019-01-30T21:10:41.234Z,24.67
2019-01-30T21:13:11.340Z,34.25
2019-01-30T21:15:40.673Z,31.52
2019-01-30T21:18:10.452Z,33.58
2019-01-30T21:20:39.761Z,21.97
2019-01-30T21:23:09.247Z,41.00
2019-01-30T21:25:38.456Z,29.57
2019-01-30T21:28:07.751Z,18.70
2019-01-30T21:30:38.208Z,28.32
2019-01-30T21:33:07.807Z,46.80
2019-01-30T21:35:37.197Z,33.90
2019-01-30T21:38:07.070Z,30.17
2019-01-30T21:40:36.542Z,26.23
2019-01-30T21:43:06.264Z,24.10
2019-01-30T21:45:35.656Z,32.25
2019-01-30T21:48:05.752Z,35.80
2019-01-30T21:50:34.946Z,41.18
2019-01-30T21:53:04.207Z,31.55
2019-01-30T21:55:34.458Z,46.75
2019-01-30T21:58:03.637Z,26.35
2019-01-30T22:00:32.910Z,27.07
2019-01-30T22:03:02.488Z,26.07
2019-01-30T22:05:31.979Z,32.15
2019-01-30T22:08:01.706Z,34.30
2019-01-30T22:10:31.547Z,27.02
2019-01-30T22:13:00.891Z,31.37
2019-01-30T22:15:30.175Z,32.33
2019-01-30T22:17:59.360Z,31.15
2019-01-30T22:20:28.758Z,24.30
2019-01-30T22:22:57.988Z,28.55
2019-01-30T22:25:27.572Z,34.40
2019-01-30T22:27:56.799Z,31.48
2019-01-30T22:30:28.203Z,35.08
2019-01-30T22:32:57.377Z,40.03
2019-01-30T22:35:26.572Z,31.27
2019-01-30T22:37:56.076Z,34.05
2019-01-30T22:40:25.645Z,40.85
2019-01-30T22:42:54.913Z,32.15
2019-01-30T22:45:24.184Z,29.98
2019-01-30T22:47:53.405Z,31.20
2019-01-30T22:50:22.561Z,32.85
2019-01-30T22:52:51.754Z,35.45
2019-01-30T22:55:22.593Z,34.70
2019-01-30T22:57:52.191Z,24.40
2019-01-30T23:01:13.047Z,37.25
2019-01-30T23:03:58.323Z,36.20
2019-01-30T23:06:57.445Z,26.25
2019-01-30T23:10:07.840Z,29.18
2019-01-30T23:13:11.213Z,40.15
2019-01-30T23:16:01.988Z,32.65
2019-01-30T23:18:38.909Z,32.05
2019-01-30T23:21:18.747Z,28.57
2019-01-30T23:24:38.974Z,29.75
2019-01-30T23:27:16.936Z,28.40
2019-01-30T23:30:14.923Z,27.50
2019-01-30T23:33:12.536Z,35.05
2019-01-30T23:36:16.387Z,30.40
2019-01-30T23:39:28.535Z,49.00
2019-01-30T23:42:49.795Z,28.05
2019-01-30T23:46:14.893Z,30.45
2019-01-30T23:49:13.327Z,28.40
2019-01-30T23:51:59.786Z,33.95
2019-01-30T23:54:51.799Z,25.75
2019-01-30T23:58:03.501Z,21.45
